• Join FlightAware (Why Join?)
  • Login
  • US Flag 
07:55AM EST


 

Airport Tracker/Info


-or-


 

Live Flight TrackerFlight Track Log ✈ N3558D ✈ 30-May-2013 ✈ KECP - KLAL

Flight Track Log - Related Links

Times and Time Zones

All times are in EDT time to prevent confusion due to time zone crossing. See the N3558D flight status page for this flight to view local times or setup timezone preferences in your user account.

Time Position Orientation Groundspeed Altitude Reporting Facility
EDT Latitude Longitude Course Direction KTS MPH feet Rate Location/Type
01:51PM 30.1944 -85.5230 125° Southeast  Level Estimated
01:52PM 30.1762 -85.4928 125° Southeast  Level Estimated
01:53PM 30.1580 -85.4626 125° Southeast  Level Estimated
01:54PM 30.1398 -85.4325 125° Southeast  Level Estimated
01:55PM 30.1216 -85.4023 125° Southeast  Level Estimated
01:56PM 30.1033 -85.3722 125° Southeast  Level Estimated
01:57PM 30.0851 -85.3421 125° Southeast  Level Estimated
01:58PM 30.0669 -85.3120 125° Southeast  Level Estimated
01:59PM 30.0486 -85.2819 125° Southeast  Level Estimated
02:00PM 30.0304 -85.2518 125° Southeast  Level Estimated
02:01PM 30.0121 -85.2217 125° Southeast  Level Estimated
02:02PM 29.9938 -85.1916 125° Southeast  Level Estimated
02:03PM 29.9755 -85.1616 125° Southeast  Level Estimated
02:04PM 29.9573 -85.1315 125° Southeast  Level Estimated
02:05PM 29.9390 -85.1015 125° Southeast  Level Estimated
02:06PM 29.9207 -85.0715 125° Southeast  Level Estimated
02:07PM 29.9024 -85.0415 125° Southeast  Level Estimated
02:08PM 29.8841 -85.0115 125° Southeast  Level Estimated
02:09PM 29.8657 -84.9815 125° Southeast  Level Estimated
02:10PM 29.8474 -84.9515 125° Southeast  Level Estimated
02:11PM 29.8291 -84.9215 125° Southeast  Level Estimated
02:12PM 29.8107 -84.8916 125° Southeast  Level Estimated
02:13PM 29.7924 -84.8616 125° Southeast  Level Estimated
02:14PM 29.7740 -84.8317 125° Southeast  Level Estimated
02:15PM 29.7557 -84.8018 125° Southeast  Level Estimated
02:16PM 29.7373 -84.7719 125° Southeast  Level Estimated
02:17PM 29.7189 -84.7420 125° Southeast  Level Estimated
02:18PM 29.7006 -84.7121 125° Southeast  Level Estimated
02:19PM 29.6822 -84.6822 125° Southeast  Level Estimated
02:20PM 29.6638 -84.6523 125° Southeast  Level Estimated
02:21PM 29.6454 -84.6225 125° Southeast  Level Estimated
02:22PM 29.6270 -84.5926 125° Southeast  Level Estimated
02:23PM 29.6085 -84.5628 125° Southeast  Level Estimated
02:24PM 29.5901 -84.5329 125° Southeast  Level Estimated
02:25PM 29.5717 -84.5031 125° Southeast  Level Estimated
02:26PM 29.5533 -84.4733 125° Southeast  Level Estimated
02:27PM 29.5348 -84.4435 125° Southeast  Level Estimated
02:28PM 29.5164 -84.4137 125° Southeast  Level Estimated
02:29PM 29.4979 -84.3840 125° Southeast  Level Estimated
02:30PM 29.4795 -84.3542 125° Southeast  Level Estimated
02:31PM 29.4610 -84.3245 125° Southeast  Level Estimated
02:31PM 30.1153 -84.0403 126° Southeast 102 117 2,600  Level Jacksonville Center
02:32PM 29.4425 -84.2947 125° Southeast  Level Estimated
02:32PM 30.1133 -84.0044 94° East 103 119 2,600  Level Jacksonville Center
02:33PM 29.4240 -84.2650 126° Southeast  Level Estimated
02:33PM 30.1117 -83.9756 94° East 103 119 2,500  Level Jacksonville Center
02:34PM 29.4056 -84.2353 126° Southeast  Level Estimated
02:34PM 30.1014 -83.9417 109° East 108 124 2,600  Level Jacksonville Center
02:35PM 29.3871 -84.2056 126° Southeast  Level Estimated
02:35PM 30.0914 -83.9106 110° East 99 114 2,700  Level Jacksonville Center
02:36PM 29.3686 -84.1759 126° Southeast  Level Estimated
02:36PM 30.0789 -83.8792 115° Southeast 113 130 2,600  Level Jacksonville Center
02:37PM 29.3501 -84.1462 126° Southeast  Level Estimated
02:37PM 30.0647 -83.8453 116° Southeast 108 124 2,600  Level Jacksonville Center
02:38PM 30.0503 -83.8164 120° Southeast 108 124 2,600 -60 Level Jacksonville Center
02:39PM 30.0378 -83.7900 119° Southeast 114 131 2,500 -120 Descending Jacksonville Center
02:40PM 30.0256 -83.7611 116° Southeast 109 125 2,400 60 Descending Jacksonville Center
02:41PM 30.0133 -83.7322 116° Southeast 103 119 2,700  Climbing Jacksonville Center
02:42PM 30.0008 -83.7008 115° Southeast 103 119 2,500 -180 Descending Jacksonville Center
02:43PM 29.9844 -83.6744 126° Southeast 96 110 2,400  Descending Jacksonville Center
02:44PM 29.9742 -83.6431 111° Southeast 96 110 2,600 60 Climbing Jacksonville Center
02:45PM 29.9597 -83.6142 120° Southeast 96 110 2,600  Level Jacksonville Center
02:46PM 29.9431 -83.5853 124° Southeast 101 116 2,600  Level Jacksonville Center
02:47PM 29.9244 -83.5589 129° Southeast 101 116 2,600  Level Jacksonville Center
02:48PM 29.9058 -83.5372 135° Southeast 101 116 2,600  Level Jacksonville Center
02:49PM 29.8914 -83.5106 122° Southeast 101 116 2,600 -60 Level Jacksonville Center
02:50PM 29.8769 -83.4819 120° Southeast 106 122 2,500 -60 Descending Jacksonville Center
02:51PM 29.8581 -83.4553 129° Southeast 106 122 2,500  Level Jacksonville Center
02:52PM 29.8436 -83.4289 122° Southeast 106 122 2,500 -60 Level Jacksonville Center
02:53PM 29.8375 -83.3978 103° East 95 109 2,400  Descending Jacksonville Center
02:54PM 29.8333 -83.3667 99° East 90 104 2,500  Climbing Jacksonville Center
02:55PM 29.8189 -83.3403 122° Southeast 90 104 2,400  Descending Jacksonville Center
02:56PM 29.7961 -83.3233 147° Southeast 95 109 2,500  Climbing Jacksonville Center
02:57PM 29.7711 -83.3064 150° Southeast 101 116 2,500 -60 Level Jacksonville Center
02:58PM 29.7461 -83.2850 143° Southeast 106 122 2,400  Descending Jacksonville Center
02:59PM 29.7253 -83.2608 135° Southeast 106 122 2,500 120 Climbing Jacksonville Center
03:00PM 29.7150 -83.2275 110° East 106 122 2,700 -60 Climbing Jacksonville Center
03:01PM 29.7044 -83.1986 113° Southeast 101 116 2,400 -120 Descending Jacksonville Center
03:02PM 29.6900 -83.1722 122° Southeast 101 116 2,500  Climbing Jacksonville Center
03:03PM 29.6692 -83.1483 135° Southeast 101 116 2,500  Level Jacksonville Center
03:04PM 29.6483 -83.1244 135° Southeast 101 116 2,600  Climbing Jacksonville Center
03:05PM 29.6253 -83.1028 141° Southeast 101 116 2,600 -60 Level Jacksonville Center
03:06PM 29.6044 -83.0789 135° Southeast 106 122 2,500 -60 Descending Jacksonville Center
03:07PM 29.5858 -83.0525 129° Southeast 106 122 2,500 -120 Level Jacksonville Center
03:08PM 29.5817 -83.0478 135° Southeast 108 124 2,400 -120 Descending Jacksonville Center
03:08PM 29.5711 -83.0264 120° Southeast 101 116 2,400  Level Jacksonville Center
03:09PM 29.5669 -83.0239 152° Southeast 100 115 2,400  Level Jacksonville Center
03:09PM 29.5628 -82.9975 100° East 91 105 2,400  Level Jacksonville Center
03:10PM 29.5628 -82.9928 90° East 102 117 2,400 -120 Level Jacksonville Center
03:10PM 29.5525 -82.9689 116° Southeast 91 105 2,300  Descending Jacksonville Center
03:11PM 29.5442 -82.9642 154° Southeast 101 116 2,400 60 Climbing Jacksonville Center
03:11PM 29.5336 -82.9475 126° Southeast 91 105 2,400 -60 Level Jacksonville Center
03:12PM 29.5128 -82.9283 141° Southeast 96 110 2,300 -120 Descending Jacksonville Center
03:13PM 29.4961 -82.9044 129° Southeast 96 110 2,200  Descending Jacksonville Center
03:15PM 29.4794 -82.8783 126° Southeast 91 105 2,400  Climbing Jacksonville Center
03:15PM 29.4711 -82.8569 114° Southeast 91 105 2,300 -240 Descending Jacksonville Center
03:16PM 29.4628 -82.8544 165° South 95 109 2,200 60 Descending Jacksonville Center
03:17PM 29.4294 -82.8403 160° South 112 129 2,400 -60 Climbing Jacksonville Center
03:18PM 29.4083 -82.8283 154° Southeast 96 110 2,100 -180 Descending Jacksonville Center
03:19PM 29.3792 -82.8139 157° South 94 108 2,100  Level Jacksonville Center
03:20PM 29.3583 -82.8044 158° South 95 109 2,200 120 Climbing Jacksonville Center
03:21PM 29.3353 -82.7878 148° Southeast 95 109 2,400 60 Climbing Jacksonville Center
03:22PM 29.3103 -82.7758 157° South 91 105 2,400  Level Jacksonville Center
03:23PM 29.2914 -82.7617 147° Southeast 90 104 2,500 60 Climbing Jacksonville Center
03:24PM 29.2706 -82.7450 145° Southeast 87 100 2,600  Climbing Jacksonville Center
03:25PM 29.2475 -82.7331 156° South 93 107 2,600  Level Jacksonville Center
03:26PM 29.2225 -82.7211 157° South 97 112 2,600  Level Jacksonville Center
03:27PM 29.1933 -82.7094 161° South 99 114 2,600  Level Jacksonville Center
03:28PM 29.1725 -82.6906 142° Southeast 89 102 2,600  Level Jacksonville Center
03:29PM 29.1514 -82.6739 145° Southeast 99 114 2,600 -60 Level Jacksonville Center
03:30PM 29.1306 -82.6572 145° Southeast 99 114 2,500  Descending Jacksonville Center
03:31PM 29.1075 -82.6383 144° Southeast 95 109 2,600  Climbing Jacksonville Center
03:32PM 29.0908 -82.6169 132° Southeast 85 98 2,600  Level Jacksonville Center
03:33PM 29.0719 -82.5981 139° Southeast 89 102 2,600 -60 Level Jacksonville Center
03:34PM 29.0533 -82.5814 142° Southeast 95 109 2,500 -180 Descending Jacksonville Center
03:35PM 29.0281 -82.5647 150° Southeast 97 112 2,300 -360 Descending Jacksonville Center
03:36PM 29.0008 -82.5436 146° Southeast 96 110 1,800 -180 Descending Jacksonville Center
03:37PM 28.9864 -82.5294 139° Southeast 78 90 2,000 420 Climbing Jacksonville Center
03:38PM 28.9758 -82.5128 126° Southeast 68 78 2,700 300 Climbing Jacksonville Center
03:39PM 28.9592 -82.4939 135° Southeast 82 94 2,700 -120 Level Jacksonville Center
03:40PM 28.9444 -82.4772 135° Southeast 85 98 2,500 -120 Descending Jacksonville Center
03:41PM 28.9256 -82.4631 147° Southeast 82 94 2,500  Level Jacksonville Center
03:42PM 28.9108 -82.4442 132° Southeast 77 89 2,500  Level Jacksonville Center
03:43PM 28.8983 -82.4253 127° Southeast 77 89 2,500  Level Jacksonville Center
03:44PM 28.8814 -82.4017 129° Southeast 78 90 2,500  Level Jacksonville Center
03:45PM 28.8667 -82.3806 129° Southeast 83 96 2,500  Level Jacksonville Center
03:46PM 28.8458 -82.3639 145° Southeast 93 107 2,500  Level Jacksonville Center
03:47PM 28.8292 -82.3428 132° Southeast 90 104 2,500  Level Jacksonville Center
03:48PM 28.8122 -82.3214 132° Southeast 85 98 2,500 -120 Level Jacksonville Center
03:49PM 28.7997 -82.3025 127° Southeast 89 102 2,300 -180 Descending Jacksonville Center
03:51PM 28.7500 -82.2833 161° South 100 115 2,100 -120 Descending Tampa TRACON
03:52PM 28.7333 -82.2833 180° South 100 115 2,000 -60 Descending Tampa TRACON
03:53PM 28.7000 -82.2833 180° South 100 115 2,000 -120 Level Tampa TRACON
03:54PM 28.6667 -82.2667 156° South 103 119 1,800 -480 Descending Tampa TRACON
03:55PM 28.6333 -82.2667 180° South 110 127 1,000 -300 Descending Tampa TRACON
03:56PM 28.6167 -82.2500 139° Southeast 106 122 1,200 180 Climbing Tampa TRACON
03:57PM 28.5833 -82.2500 180° South 111 128 1,400 360 Climbing Tampa TRACON
03:58PM 28.5667 -82.2500 180° South 97 112 2,000 360 Climbing Tampa TRACON
03:59PM 28.5333 -82.2333 156° South 94 108 2,200 120 Climbing Tampa TRACON
04:00PM 28.5167 -82.2167 139° Southeast 100 115 2,300  Climbing Tampa TRACON
04:01PM 28.4833 -82.2000 156° South 100 115 2,300  Level Tampa TRACON
04:02PM 28.4667 -82.2000 180° South 97 112 2,400 120 Climbing Tampa TRACON
04:03PM 28.4333 -82.1833 156° South 94 108 2,600  Climbing Tampa TRACON
04:04PM 28.4000 -82.1667 156° South 103 119 2,400 -240 Descending Tampa TRACON
04:05PM 28.3833 -82.1667 180° South 98 113 2,200 -240 Descending Tampa TRACON
04:06PM 28.3667 -82.1500 139° Southeast 94 108 2,000 -180 Descending Tampa TRACON
04:07PM 28.3333 -82.1333 156° South 95 109 1,900 -180 Descending Tampa TRACON
04:08PM 28.3167 -82.1167 139° Southeast 93 107 1,700 -240 Descending Tampa TRACON
04:09PM 28.3000 -82.1000 139° Southeast 96 110 1,500 -120 Descending Tampa TRACON
04:10PM 28.2833 -82.0667 120° Southeast 93 107 1,500  Level Tampa TRACON
04:11PM 28.2500 -82.0667 180° South 102 117 1,500 60 Level Tampa TRACON
04:12PM 28.2167 -82.0500 156° South 96 110 1,700  Climbing Tampa TRACON
04:13PM 28.2000 -82.0500 180° South 108 124 1,600 -120 Descending Tampa TRACON
04:14PM 28.1667 -82.0500 180° South 111 128 1,500 -120 Descending Tampa TRACON